Waddell, Arizona
Current Conditions -  °F | °C
As of 7:58 AM on Monday 24 Nov 2014 (Local Time) from KLUF Reporting Station
Smoke Smoke  
Wind Chill: 41°   Ceiling: Unl
Heat Index: 41°   Visibility: 10mi
Dew Point: 11°   Wind: 2mph
Humidity: 30%   Direction: NA
Pressure: 30.21"   Gusts: NA
Location:  33.57°N, 112.43°W
Report Text: KLUF 241458Z VRB02KT 10SM FU FEW000 05/M11 A3021 RMK AO2A SLP231 T00501115 $
Loading
Personal Weather Stations






























Interactive Weather Map New forecast layout! Learn more

10-Day Weather Forecast

Advertisements
Track Severe Weather on mobile